Time;durP1;ratioP1;P1;durP2;ratioP2;P2;SDS_P1;SDS_P2;PMS_P1;PMS_P2;Temp;Humidity;BMP_temperature;BMP_pressure;BME280_temperature;BME280_humidity;BME280_pressure;Samples;Min_cycle;Max_cycle;Signal;HPM_P1;HPM_P2
2021/09/04 00:02:13;;;;;;;4.35;3.05;;;;;;;26.63;41.92;95151.06;5066180;28;20751;-75
2021/09/04 00:04:40;;;;;;;5.47;3.20;;;;;;;26.64;41.88;95160.75;5065105;28;20028;-75
2021/09/04 00:07:06;;;;;;;4.10;2.63;;;;;;;26.62;41.85;95158.56;5048270;28;20587;-75
2021/09/04 00:09:32;;;;;;;3.70;2.95;;;;;;;26.62;41.83;95164.03;5065274;28;20052;-75
2021/09/04 00:11:57;;;;;;;4.68;3.00;;;;;;;26.63;42.09;95164.75;5066394;28;20507;-75
2021/09/04 00:14:22;;;;;;;4.60;3.03;;;;;;;26.62;42.24;95168.75;5065107;28;20024;-75
2021/09/04 00:16:48;;;;;;;3.63;2.70;;;;;;;26.59;41.79;95164.31;5048604;28;20021;-75
2021/09/04 00:19:13;;;;;;;4.18;2.80;;;;;;;26.60;41.82;95171.28;5046457;28;20085;-76
2021/09/04 00:21:39;;;;;;;4.88;2.80;;;;;;;26.59;41.93;95175.28;5048314;28;20032;-75
2021/09/04 00:24:04;;;;;;;3.60;2.55;;;;;;;26.59;42.05;95158.84;5046898;28;20542;-74
2021/09/04 00:26:29;;;;;;;4.25;3.00;;;;;;;26.58;42.07;95163.59;5065902;28;20021;-75
2021/09/04 00:28:55;;;;;;;4.03;2.97;;;;;;;26.59;42.19;95167.06;5065003;28;20036;-75
2021/09/04 00:31:20;;;;;;;4.55;3.05;;;;;;;26.59;42.06;95169.81;5066135;28;20036;-75
2021/09/04 00:33:46;;;;;;;4.25;3.08;;;;;;;26.58;41.86;95171.81;5064968;28;20037;-75
2021/09/04 00:36:11;;;;;;;3.85;2.70;;;;;;;26.58;41.94;95173.84;5066120;28;20048;-76
2021/09/04 00:38:37;;;;;;;4.45;2.90;;;;;;;26.57;41.68;95172.34;5062977;28;20110;-76
2021/09/04 00:41:02;;;;;;;4.32;2.65;;;;;;;26.57;42.22;95177.81;5066145;28;20041;-76
2021/09/04 00:43:28;;;;;;;4.55;2.78;;;;;;;26.57;41.76;95175.09;5064830;28;20047;-76
2021/09/04 00:45:53;;;;;;;4.15;2.97;;;;;;;26.58;42.33;95162.88;5048127;28;20025;-75
2021/09/04 00:48:18;;;;;;;4.25;2.92;;;;;;;26.55;42.08;95163.94;5064290;28;20033;-74
2021/09/04 00:50:44;;;;;;;4.13;2.78;;;;;;;26.56;42.09;95155.19;5065872;28;20024;-75
2021/09/04 00:53:09;;;;;;;5.25;2.95;;;;;;;26.57;41.70;95155.91;5064051;28;20032;-76
2021/09/04 00:55:35;;;;;;;3.97;2.97;;;;;;;26.54;41.69;95152.22;5065719;28;20086;-75
2021/09/04 00:58:00;;;;;;;4.20;2.72;;;;;;;26.55;42.17;95163.94;5045966;28;20029;-75
2021/09/04 01:00:26;;;;;;;3.35;2.55;;;;;;;26.55;42.02;95158.44;5065590;28;20040;-76
2021/09/04 01:02:51;;;;;;;4.13;2.85;;;;;;;26.55;42.05;95153.69;5064228;28;20031;-75
2021/09/04 01:05:17;;;;;;;3.65;2.53;;;;;;;26.56;41.82;95148.94;5064762;28;20491;-75
2021/09/04 01:07:42;;;;;;;4.55;2.40;;;;;;;26.55;41.68;95147.50;5064797;28;20035;-75
2021/09/04 01:10:09;;;;;;;5.05;3.10;;;;;;;26.55;42.07;95142.00;5046673;28;20177;-75
2021/09/04 01:12:34;;;;;;;3.80;2.78;;;;;;;26.52;42.12;95129.38;5064969;28;20418;-75
2021/09/04 01:15:00;;;;;;;4.10;2.67;;;;;;;26.55;41.94;95136.53;5029985;28;20032;-75
2021/09/04 01:17:25;;;;;;;3.45;2.60;;;;;;;26.55;41.62;95142.00;5047390;28;20032;-75
2021/09/04 01:19:51;;;;;;;3.63;2.28;;;;;;;26.54;41.87;95135.03;5064178;28;20032;-76
2021/09/04 01:22:16;;;;;;;3.90;2.70;;;;;;;26.53;42.31;95128.09;5065319;28;20039;-75
2021/09/04 01:24:45;;;;;;;4.72;2.78;;;;;;;26.51;42.31;95136.09;5063971;28;20063;-75
2021/09/04 01:27:10;;;;;;;3.97;2.60;;;;;;;26.50;42.12;95135.38;5030676;28;20039;-74
2021/09/04 01:29:36;;;;;;;4.95;2.90;;;;;;;26.53;42.02;95128.09;5063094;28;20032;-75
2021/09/04 01:32:01;;;;;;;3.80;2.40;;;;;;;26.53;41.91;95111.66;5065207;28;20085;-75
2021/09/04 01:34:26;;;;;;;4.38;3.00;;;;;;;26.52;42.02;95115.66;5063785;28;20032;-75
2021/09/04 01:36:52;;;;;;;3.45;2.60;;;;;;;26.49;42.00;95122.94;5065318;28;20628;-75
2021/09/04 01:39:17;;;;;;;3.72;2.83;;;;;;;26.51;41.92;95125.16;5046523;28;20029;-75
2021/09/04 01:41:43;;;;;;;3.33;2.40;;;;;;;26.51;42.51;95119.66;5061887;28;20024;-75
2021/09/04 01:44:08;;;;;;;3.15;2.20;;;;;;;26.50;41.97;95112.69;5064671;28;20028;-76
2021/09/04 01:46:34;;;;;;;4.85;2.70;;;;;;;26.50;42.00;95112.69;5062734;28;20036;-75
2021/09/04 01:49:00;;;;;;;3.58;2.53;;;;;;;26.50;41.97;95118.19;5065061;28;20028;-75
2021/09/04 01:51:25;;;;;;;3.50;2.42;;;;;;;26.50;42.20;95123.66;5063787;28;20054;-74
2021/09/04 01:53:51;;;;;;;4.80;2.78;;;;;;;26.50;41.93;95118.19;5044994;28;20020;-74
2021/09/04 01:56:16;;;;;;;3.88;2.70;;;;;;;26.48;41.94;95115.97;5044407;28;20049;-75
2021/09/04 01:58:42;;;;;;;4.30;2.42;;;;;;;26.49;42.41;95105.78;5061735;28;20499;-76
2021/09/04 02:01:08;;;;;;;4.13;2.72;;;;;;;26.50;42.08;95118.19;5046599;28;20045;-73
2021/09/04 02:03:36;;;;;;;5.28;3.45;;;;;;;26.47;42.24;95109.03;5063430;28;20056;-75
2021/09/04 02:06:02;;;;;;;4.15;2.70;;;;;;;26.48;41.91;95120.72;5064947;28;20023;-75
2021/09/04 02:08:28;;;;;;;3.22;2.35;;;;;;;26.47;41.74;95113.75;5064330;28;20020;-75
2021/09/04 02:10:53;;;;;;;4.50;2.88;;;;;;;26.48;41.67;95109.75;5064976;28;20031;-75
2021/09/04 02:13:19;;;;;;;4.10;2.58;;;;;;;26.48;42.35;95109.75;5063231;28;20107;-75
2021/09/04 02:15:44;;;;;;;3.60;2.67;;;;;;;26.48;42.15;95109.75;5064812;28;20491;-76
2021/09/04 02:18:10;;;;;;;4.20;3.00;;;;;;;26.47;41.87;95108.28;5062843;28;20400;-75
2021/09/04 02:20:35;;;;;;;3.13;2.20;;;;;;;26.46;42.19;95102.06;5064897;28;20469;-75
2021/09/04 02:23:01;;;;;;;3.00;2.38;;;;;;;26.43;42.19;95096.91;5063193;28;20028;-75
2021/09/04 02:25:26;;;;;;;2.88;2.20;;;;;;;26.43;41.95;95094.19;5064705;28;20090;-75
2021/09/04 02:27:51;;;;;;;3.50;2.42;;;;;;;26.45;42.21;95088.91;5063602;28;20028;-75
2021/09/04 02:30:17;;;;;;;3.72;2.35;;;;;;;26.45;42.32;95099.88;5062880;28;20040;-75
2021/09/04 02:32:43;;;;;;;3.95;2.30;;;;;;;26.45;42.10;95088.91;5064141;28;20025;-75
2021/09/04 02:35:08;;;;;;;3.38;2.30;;;;;;;26.41;42.20;95077.53;5063114;28;20033;-75
2021/09/04 02:37:34;;;;;;;4.47;2.70;;;;;;;26.45;42.11;95099.88;5046282;28;20505;-75
2021/09/04 02:39:59;;;;;;;3.13;2.50;;;;;;;26.45;41.94;95088.91;5063450;28;20036;-75
2021/09/04 02:42:25;;;;;;;3.30;2.40;;;;;;;26.44;41.95;95092.91;5063736;28;20028;-75
2021/09/04 02:44:50;;;;;;;3.17;2.20;;;;;;;26.43;41.92;95091.44;5064557;28;20486;-76
2021/09/04 02:47:16;;;;;;;3.47;2.50;;;;;;;26.44;42.28;95087.41;5063938;28;20039;-76
2021/09/04 02:49:41;;;;;;;3.38;2.15;;;;;;;26.43;41.96;95085.97;5064652;28;20134;-75
2021/09/04 02:52:07;;;;;;;3.30;2.20;;;;;;;26.39;42.07;95080.06;5063829;28;20024;-75
2021/09/04 02:54:32;;;;;;;3.33;2.47;;;;;;;26.38;42.20;95073.09;5063614;28;20040;-74
2021/09/04 02:56:58;;;;;;;3.92;2.78;;;;;;;26.41;41.95;95078.28;5045217;28;20032;-74
2021/09/04 02:59:23;;;;;;;3.00;2.28;;;;;;;26.43;41.98;95085.97;5045367;28;20028;-75
2021/09/04 03:01:49;;;;;;;4.65;2.50;;;;;;;26.42;42.44;95079.00;5046046;28;20519;-75
2021/09/04 03:04:14;;;;;;;3.92;2.42;;;;;;;26.42;42.22;95079.00;5066548;28;20024;-75
2021/09/04 03:06:39;;;;;;;4.03;2.83;;;;;;;26.41;42.37;95085.75;5048929;28;20028;-75
2021/09/04 03:09:05;;;;;;;3.80;2.70;;;;;;;26.40;42.24;95087.75;5048894;28;20024;-75
2021/09/04 03:11:30;;;;;;;3.58;2.20;;;;;;;26.40;42.04;95076.06;5048057;28;20032;-75
2021/09/04 03:13:56;;;;;;;3.53;2.40;;;;;;;26.39;42.44;95080.78;5067246;28;20581;-75
2021/09/04 03:16:21;;;;;;;2.50;2.10;;;;;;;26.39;42.23;95080.06;5065670;28;20028;-75
2021/09/04 03:18:47;;;;;;;3.67;2.20;;;;;;;26.38;42.42;95073.09;5066306;28;20414;-75
2021/09/04 03:21:12;;;;;;;2.92;2.47;;;;;;;26.37;42.15;95082.59;5067663;28;20025;-75
2021/09/04 03:23:38;;;;;;;2.45;2.00;;;;;;;26.36;42.03;95070.16;5065297;28;20094;-75
2021/09/04 03:26:03;;;;;;;2.97;1.92;;;;;;;26.37;42.03;95088.06;5067673;28;20066;-75
2021/09/04 03:28:29;;;;;;;3.08;2.20;;;;;;;26.37;42.56;95082.59;5065461;28;20032;-72
2021/09/04 03:30:55;;;;;;;4.15;2.20;;;;;;;26.38;42.27;95084.06;5067817;28;20020;-75
2021/09/04 03:33:20;;;;;;;3.92;2.45;;;;;;;26.37;41.88;95088.06;5067037;28;20400;-75
2021/09/04 03:35:45;;;;;;;2.55;2.05;;;;;;;26.37;42.39;95085.34;5066574;28;20051;-75
2021/09/04 03:38:11;;;;;;;2.60;2.00;;;;;;;26.36;42.08;95092.06;5048963;28;20020;-75
2021/09/04 03:40:36;;;;;;;2.85;2.10;;;;;;;26.35;42.21;95096.06;5065582;28;20035;-75
2021/09/04 03:43:02;;;;;;;3.25;2.33;;;;;;;26.36;42.39;95081.13;5066244;28;20035;-75
2021/09/04 03:45:27;;;;;;;2.97;1.90;;;;;;;26.36;42.18;95092.06;5067020;28;20055;-75
2021/09/04 03:47:53;;;;;;;2.80;2.13;;;;;;;26.34;42.26;95094.59;5065526;28;20032;-75
2021/09/04 03:50:18;;;;;;;3.22;2.05;;;;;;;26.34;42.21;95105.56;5067180;28;20020;-75
2021/09/04 03:52:44;;;;;;;3.70;2.33;;;;;;;26.35;42.27;95109.75;5065701;28;20453;-75
2021/09/04 03:55:09;;;;;;;3.67;2.30;;;;;;;26.34;42.35;95089.13;5067243;28;20469;-76
2021/09/04 03:57:35;;;;;;;2.78;2.15;;;;;;;26.34;42.06;95094.59;5065552;28;20491;-75
2021/09/04 04:00:01;;;;;;;3.00;2.08;;;;;;;26.33;42.03;95104.06;5067021;28;20070;-75
2021/09/04 04:02:26;;;;;;;3.50;2.15;;;;;;;26.33;42.09;95098.59;5065153;28;20091;-75
2021/09/04 04:04:51;;;;;;;3.05;2.17;;;;;;;26.31;42.15;95084.72;5065392;28;20028;-75
2021/09/04 04:07:17;;;;;;;4.07;2.40;;;;;;;26.32;42.26;95086.91;5066266;28;20027;-74
2021/09/04 04:09:44;;;;;;;2.60;2.00;;;;;;;26.34;42.24;95083.66;5065815;28;20047;-75
2021/09/04 04:12:09;;;;;;;3.20;2.15;;;;;;;26.30;42.42;95081.22;5066917;28;20473;-75
2021/09/04 04:14:35;;;;;;;3.22;2.35;;;;;;;26.33;42.50;95093.13;5065815;28;20032;-75
2021/09/04 04:17:01;;;;;;;3.08;2.10;;;;;;;26.34;41.96;95089.13;5066228;28;20044;-75
2021/09/04 04:19:27;;;;;;;3.35;2.72;;;;;;;26.31;41.76;95085.44;5066051;28;20075;-75
2021/09/04 04:21:53;;;;;;;3.40;2.38;;;;;;;26.31;42.08;95092.91;5066633;28;20036;-75
2021/09/04 04:24:18;;;;;;;4.20;2.60;;;;;;;26.31;41.97;95101.13;5046604;28;20028;-74
2021/09/04 04:26:43;;;;;;;2.67;2.25;;;;;;;26.28;42.09;95091.22;5066970;28;20429;-75
2021/09/04 04:29:09;;;;;;;3.30;2.22;;;;;;;26.32;42.28;95108.06;5031927;28;20051;-75
2021/09/04 04:31:37;;;;;;;3.00;2.22;;;;;;;26.32;42.27;95106.09;5066942;28;20043;-75
2021/09/04 04:34:03;;;;;;;3.03;2.10;;;;;;;26.32;42.04;95113.53;5064642;28;20040;-75
2021/09/04 04:36:28;;;;;;;2.83;1.98;;;;;;;26.33;41.89;95109.56;5048631;28;20873;-75
2021/09/04 04:38:54;;;;;;;3.55;2.30;;;;;;;26.32;42.03;95119.78;5064992;28;20431;-75
2021/09/04 04:41:19;;;;;;;3.30;2.20;;;;;;;26.34;41.79;95122.00;5065736;28;20652;-74
2021/09/04 04:43:45;;;;;;;3.83;2.13;;;;;;;26.34;42.12;95127.47;5064251;28;20040;-75
2021/09/04 04:46:10;;;;;;;3.00;2.20;;;;;;;26.34;41.76;95113.78;5065912;28;20020;-74
2021/09/04 04:48:36;;;;;;;3.70;2.30;;;;;;;26.35;41.87;95123.44;5064810;28;20035;-75
2021/09/04 04:51:02;;;;;;;3.00;2.05;;;;;;;26.35;41.90;95117.97;5066112;28;20035;-75
2021/09/04 04:53:27;;;;;;;3.03;2.20;;;;;;;26.35;42.09;95112.50;5065417;28;20024;-75
2021/09/04 04:55:53;;;;;;;3.42;2.10;;;;;;;26.35;41.90;95123.44;5065804;28;20024;-76
2021/09/04 04:58:18;;;;;;;2.80;1.95;;;;;;;26.37;42.28;95126.41;5064271;28;20032;-75
2021/09/04 05:00:45;;;;;;;3.58;2.40;;;;;;;26.38;41.64;95127.88;5064769;28;20479;-75
2021/09/04 05:03:10;;;;;;;3.15;2.10;;;;;;;26.38;41.83;95133.34;5063296;28;20035;-75
2021/09/04 05:05:36;;;;;;;3.15;2.17;;;;;;;26.39;42.28;95134.84;5065691;28;20028;-75
2021/09/04 05:08:03;;;;;;;2.58;1.90;;;;;;;26.37;42.26;95126.41;5063488;28;20021;-75
2021/09/04 05:10:28;;;;;;;3.10;2.08;;;;;;;26.38;41.97;95122.38;5065782;28;20032;-75
2021/09/04 05:12:54;;;;;;;2.88;2.00;;;;;;;26.36;41.65;95119.44;5064916;28;20458;-75
2021/09/04 05:15:19;;;;;;;3.28;2.10;;;;;;;26.38;42.12;95133.34;5065168;28;20035;-74
2021/09/04 05:17:45;;;;;;;4.03;2.30;;;;;;;26.38;41.85;95134.09;5064269;28;20028;-75
2021/09/04 05:20:11;;;;;;;3.22;1.88;;;;;;;26.35;42.15;95117.97;5065797;28;20031;-75
2021/09/04 05:22:36;;;;;;;2.97;1.98;;;;;;;26.38;41.79;95127.88;5063881;28;20588;-75
2021/09/04 05:25:02;;;;;;;4.00;2.35;;;;;;;26.40;42.10;95130.84;5064201;28;20032;-76
2021/09/04 05:27:27;;;;;;;3.30;2.35;;;;;;;26.40;41.73;95123.34;5064728;28;20044;-75
2021/09/04 05:29:53;;;;;;;3.72;2.08;;;;;;;26.41;42.04;95127.56;5064136;28;20035;-75
2021/09/04 05:32:23;;;;;;;3.92;2.20;;;;;;;26.42;41.75;95129.03;5065250;28;20822;-75
2021/09/04 05:34:50;;;;;;;3.75;2.10;;;;;;;26.44;42.09;95136.72;5046541;28;20029;-75
2021/09/04 05:37:15;;;;;;;3.72;2.08;;;;;;;26.45;42.13;95135.47;5065281;28;20506;-75
2021/09/04 05:39:41;;;;;;;3.38;2.20;;;;;;;26.45;41.67;95138.19;5063617;28;20020;-75
2021/09/04 05:42:06;;;;;;;2.70;1.88;;;;;;;26.45;41.91;95138.19;5065316;28;20097;-75
2021/09/04 05:44:32;;;;;;;3.03;2.28;;;;;;;26.46;41.62;95128.72;5064311;28;20028;-75
2021/09/04 05:46:57;;;;;;;3.05;2.15;;;;;;;26.47;42.03;95119.22;5047314;28;20024;-75
2021/09/04 05:49:23;;;;;;;2.67;2.20;;;;;;;26.48;41.51;95126.19;5064406;28;20028;-75
2021/09/04 05:51:48;;;;;;;3.30;2.20;;;;;;;26.44;41.59;95120.28;5065013;28;20089;-76
2021/09/04 05:54:14;;;;;;;3.03;2.45;;;;;;;26.48;41.60;95131.69;5064004;28;20016;-75
2021/09/04 05:56:39;;;;;;;2.97;2.00;;;;;;;26.50;41.70;95129.13;5064495;28;20032;-76
2021/09/04 05:59:05;;;;;;;3.72;2.40;;;;;;;26.50;41.74;95123.66;5064005;28;20036;-75
2021/09/04 06:01:30;;;;;;;2.70;2.10;;;;;;;26.47;41.94;95130.19;5064421;28;20049;-75
2021/09/04 06:03:56;;;;;;;2.97;2.25;;;;;;;26.51;41.53;95138.84;5045787;28;20600;-75
2021/09/04 06:06:21;;;;;;;3.00;2.08;;;;;;;26.51;41.35;95125.16;5047160;28;20020;-75
2021/09/04 06:08:47;;;;;;;2.88;2.22;;;;;;;26.52;41.78;95129.38;5063665;28;20491;-75
2021/09/04 06:11:12;;;;;;;3.47;2.30;;;;;;;26.52;41.84;95126.63;5064687;28;20032;-75
2021/09/04 06:13:37;;;;;;;3.40;2.17;;;;;;;26.52;41.49;95126.63;5063299;28;20028;-75
2021/09/04 06:16:03;;;;;;;2.70;1.95;;;;;;;26.54;41.36;95135.03;5046705;28;20025;-75
2021/09/04 06:18:28;;;;;;;3.75;2.15;;;;;;;26.54;41.96;95135.78;5064203;28;20491;-75
2021/09/04 06:20:54;;;;;;;3.80;2.25;;;;;;;26.54;41.62;95140.53;5063877;28;20027;-75
2021/09/04 06:23:19;;;;;;;3.90;2.20;;;;;;;26.55;41.61;95136.53;5046794;28;20036;-75
2021/09/04 06:25:45;;;;;;;3.42;1.90;;;;;;;26.57;41.49;95134.00;5063172;28;20486;-75
2021/09/04 06:28:10;;;;;;;3.40;2.28;;;;;;;26.57;41.58;95144.94;5063951;28;20063;-75
2021/09/04 06:30:36;;;;;;;3.40;2.50;;;;;;;26.57;41.49;95139.47;5063511;28;20062;-75
2021/09/04 06:33:01;;;;;;;2.85;1.95;;;;;;;26.58;41.55;95130.00;5064286;28;20043;-75
2021/09/04 06:35:27;;;;;;;3.72;2.22;;;;;;;26.57;41.61;95123.03;5063629;28;20087;-75
2021/09/04 06:37:52;;;;;;;3.85;2.33;;;;;;;26.59;41.60;95125.97;5066350;28;20055;-75
2021/09/04 06:40:17;;;;;;;3.60;2.03;;;;;;;26.59;41.89;95115.00;5049139;28;20501;-75
2021/09/04 06:42:43;;;;;;;2.78;1.80;;;;;;;26.61;41.58;95118.00;5068184;28;20029;-75
2021/09/04 06:45:08;;;;;;;3.70;2.42;;;;;;;26.59;41.39;95115.78;5067201;28;20024;-74
2021/09/04 06:47:34;;;;;;;2.92;2.00;;;;;;;26.62;41.45;95135.88;5066914;28;20021;-75
2021/09/04 06:49:59;;;;;;;2.75;1.80;;;;;;;26.62;41.71;95133.13;5066846;28;20028;-76
2021/09/04 06:52:25;;;;;;;3.92;2.50;;;;;;;26.63;41.62;95131.88;5067295;28;20036;-75
2021/09/04 06:54:50;;;;;;;3.15;2.13;;;;;;;26.63;41.54;95131.88;5068133;28;20032;-75
2021/09/04 06:57:16;;;;;;;3.13;2.08;;;;;;;26.65;41.34;95132.09;5067341;28;20024;-75
2021/09/04 06:59:41;;;;;;;3.25;2.40;;;;;;;26.64;41.37;95127.88;5066373;28;20073;-75
2021/09/04 07:02:07;;;;;;;3.42;2.15;;;;;;;26.65;42.10;95123.88;5066133;28;20056;-75
2021/09/04 07:04:32;;;;;;;3.22;2.10;;;;;;;26.64;41.17;95123.13;5066609;28;20028;-75
2021/09/04 07:07:04;;;;;;;3.60;2.35;;;;;;;26.65;41.20;95118.38;5067510;28;20021;-75
2021/09/04 07:09:31;;;;;;;3.83;2.40;;;;;;;26.66;41.60;95131.56;5066708;28;20115;-75
2021/09/04 07:11:56;;;;;;;4.50;2.40;;;;;;;26.67;41.68;95113.13;5050255;28;20028;-74
2021/09/04 07:14:21;;;;;;;4.07;2.60;;;;;;;26.69;41.51;95107.84;5066317;28;20043;-75
2021/09/04 07:16:47;;;;;;;2.95;2.00;;;;;;;26.68;41.46;95120.06;5067710;28;20025;-75
2021/09/04 07:19:13;;;;;;;3.17;2.30;;;;;;;26.68;41.42;95111.84;5048246;28;20021;-74
2021/09/04 07:21:39;;;;;;;3.75;2.47;;;;;;;26.69;41.25;95102.38;5067792;28;20529;-75
2021/09/04 07:24:05;;;;;;;3.72;1.95;;;;;;;26.69;41.57;95107.84;5065297;28;20031;-75
2021/09/04 07:26:30;;;;;;;4.38;2.60;;;;;;;26.70;41.34;95110.06;5067498;28;20107;-75
2021/09/04 07:28:56;;;;;;;3.42;2.63;;;;;;;26.70;41.67;95115.53;5066044;28;20027;-75
2021/09/04 07:31:21;;;;;;;3.45;2.25;;;;;;;26.72;41.67;95112.28;5067740;28;20025;-74
2021/09/04 07:33:47;;;;;;;3.05;2.03;;;;;;;26.72;41.32;95113.00;5066024;28;20032;-74
2021/09/04 07:36:12;;;;;;;3.95;2.58;;;;;;;26.69;41.76;95103.09;5067285;28;20021;-74
2021/09/04 07:38:38;;;;;;;2.72;2.00;;;;;;;26.74;41.29;95109.72;5066676;28;20021;-75
2021/09/04 07:41:03;;;;;;;3.15;2.25;;;;;;;26.75;41.59;95111.22;5066382;28;20081;-75
2021/09/04 07:43:28;;;;;;;3.88;2.35;;;;;;;26.74;41.88;95115.22;5066863;28;20025;-75
2021/09/04 07:45:54;;;;;;;2.53;1.83;;;;;;;26.75;41.65;95117.44;5065465;28;20032;-74
2021/09/04 07:48:19;;;;;;;3.80;2.60;;;;;;;26.75;41.69;95128.38;5066739;28;20494;-75
2021/09/04 07:50:45;;;;;;;3.55;2.53;;;;;;;26.75;41.46;95127.66;5066506;28;20024;-75
2021/09/04 07:53:10;;;;;;;3.80;2.65;;;;;;;26.76;41.25;95122.38;5066572;28;20024;-74
2021/09/04 07:55:36;;;;;;;3.67;2.00;;;;;;;26.77;41.42;95126.59;5067268;28;20054;-75
2021/09/04 07:58:01;;;;;;;2.83;2.20;;;;;;;26.76;41.30;95129.16;5065806;28;20093;-73
2021/09/04 08:00:27;;;;;;;3.10;2.30;;;;;;;26.79;41.39;95129.53;5066990;28;20029;-74
2021/09/04 08:02:52;;;;;;;4.47;2.17;;;;;;;26.80;41.78;95125.53;5064545;28;20044;-74
2021/09/04 08:05:18;;;;;;;3.47;2.30;;;;;;;26.80;41.79;95133.78;5067113;28;20048;-74
2021/09/04 08:07:43;;;;;;;3.60;2.50;;;;;;;26.81;41.47;95126.28;5047914;28;20028;-72
2021/09/04 08:10:09;;;;;;;3.28;2.25;;;;;;;26.83;41.68;95134.69;5065873;28;20037;-74
2021/09/04 08:12:34;;;;;;;3.85;2.30;;;;;;;26.82;41.58;95133.97;5065523;28;20058;-74
2021/09/04 08:15:00;;;;;;;3.13;2.45;;;;;;;26.83;41.58;95129.97;5066495;28;20036;-74
2021/09/04 08:17:25;;;;;;;3.53;2.40;;;;;;;26.82;41.36;95131.22;5065204;28;20055;-74
2021/09/04 08:19:50;;;;;;;3.78;2.20;;;;;;;26.85;41.36;95132.19;5066657;28;20202;-74
2021/09/04 08:22:16;;;;;;;2.90;2.22;;;;;;;26.85;41.26;95137.66;5065852;28;20498;-76
2021/09/04 08:24:41;;;;;;;3.72;2.55;;;;;;;26.85;41.38;95138.41;5065712;28;20487;-76
2021/09/04 08:27:07;;;;;;;2.72;2.03;;;;;;;26.87;41.48;95135.84;5065759;28;20050;-76
2021/09/04 08:29:32;;;;;;;2.78;2.08;;;;;;;26.87;41.39;95130.38;5065364;28;20062;-75
2021/09/04 08:31:58;;;;;;;3.08;2.35;;;;;;;26.89;41.03;95127.88;5065136;28;20048;-76
2021/09/04 08:34:23;;;;;;;4.30;2.35;;;;;;;26.89;41.45;95127.88;5065081;28;20012;-76
2021/09/04 08:36:49;;;;;;;3.85;2.20;;;;;;;26.89;41.16;95127.88;5066410;28;20032;-76
2021/09/04 08:39:14;;;;;;;3.17;2.17;;;;;;;26.89;41.26;95133.38;5063438;28;20028;-76
2021/09/04 08:41:40;;;;;;;3.35;2.30;;;;;;;26.92;41.20;95137.78;5031505;28;20031;-76
2021/09/04 08:44:06;;;;;;;3.90;2.30;;;;;;;26.91;41.21;95136.31;5064694;28;20082;-76
2021/09/04 08:46:33;;;;;;;5.20;2.22;;;;;;;26.93;40.95;95144.72;5047925;28;20035;-75
2021/09/04 08:48:59;;;;;;;3.55;2.40;;;;;;;26.94;41.03;95135.25;5026631;28;20025;-74
2021/09/04 08:51:25;;;;;;;6.78;2.30;;;;;;;26.94;41.08;95134.53;5046246;28;20515;-75
2021/09/04 08:53:50;;;;;;;3.15;2.35;;;;;;;26.94;41.19;95140.72;5056021;28;20017;-74
2021/09/04 08:56:16;;;;;;;3.42;2.38;;;;;;;26.96;41.03;95134.72;5065628;28;20037;-74
2021/09/04 08:58:41;;;;;;;4.50;2.30;;;;;;;26.96;41.07;95143.66;5064324;28;20036;-76
2021/09/04 09:01:17;;;;;;;3.50;2.25;;;;;;;26.97;40.88;95139.66;5064632;28;20053;-75
2021/09/04 09:03:43;;;;;;;4.70;2.65;;;;;;;26.97;41.02;95123.22;5064177;28;20043;-75
2021/09/04 09:06:09;;;;;;;3.45;2.40;;;;;;;27.00;40.70;95127.66;5065429;28;20524;-75
2021/09/04 09:08:34;;;;;;;4.40;2.70;;;;;;;27.01;40.87;95131.88;5064099;28;20115;-75
2021/09/04 09:11:00;;;;;;;5.05;2.50;;;;;;;27.01;40.64;95123.66;5031230;28;20737;-76
2021/09/04 09:13:25;;;;;;;3.60;2.30;;;;;;;27.03;41.04;95126.59;5029952;28;20570;-75
2021/09/04 09:15:54;;;;;;;3.72;2.40;;;;;;;27.04;40.87;95136.28;5065411;28;20028;-75
2021/09/04 09:18:19;;;;;;;3.63;2.40;;;;;;;27.05;40.93;95124.03;5063806;28;20043;-76
2021/09/04 09:21:05;;;;;;;4.07;2.65;;;;;;;27.05;40.96;95128.78;5047484;28;20021;-74
2021/09/04 09:23:31;;;;;;;3.20;2.25;;;;;;;27.07;41.08;95121.53;5063162;28;20092;-75
2021/09/04 09:26:08;;;;;;;3.13;2.20;;;;;;;27.08;40.96;95106.53;5065628;28;20037;-75
2021/09/04 09:28:33;;;;;;;4.22;2.33;;;;;;;27.10;40.91;95098.53;5045652;28;20593;-75
2021/09/04 09:31:00;;;;;;;3.45;2.40;;;;;;;27.11;40.80;95105.47;5047540;28;20107;-75
2021/09/04 09:33:27;;;;;;;3.88;2.50;;;;;;;27.12;40.78;95095.25;5064018;28;20418;-76
2021/09/04 09:35:57;;;;;;;3.35;2.10;;;;;;;27.12;40.72;95095.97;5064249;28;20241;-76
2021/09/04 09:38:30;;;;;;;3.33;2.35;;;;;;;27.14;40.80;95092.72;5064172;28;20062;-75
2021/09/04 09:40:56;;;;;;;2.72;2.00;;;;;;;27.14;40.79;95087.22;5063882;28;20067;-75
2021/09/04 09:43:22;;;;;;;3.92;2.40;;;;;;;27.15;41.09;95083.94;5065274;28;20457;-76
2021/09/04 09:45:57;;;;;;;3.40;2.25;;;;;;;27.17;40.83;95075.91;5062967;28;20040;-75
2021/09/04 09:48:27;;;;;;;3.58;2.30;;;;;;;27.17;40.75;95064.94;5065132;28;20035;-76
2021/09/04 09:50:54;;;;;;;3.95;2.38;;;;;;;27.19;40.69;95069.91;5064535;28;20576;-74
2021/09/04 09:53:20;;;;;;;2.70;1.90;;;;;;;27.19;40.84;95061.69;5047156;28;20074;-75
2021/09/04 09:55:46;;;;;;;4.55;2.85;;;;;;;27.19;40.70;95045.97;5045311;28;20024;-75
2021/09/04 09:58:13;;;;;;;2.75;2.20;;;;;;;27.21;40.30;95048.91;5064263;28;20037;-75
2021/09/04 10:00:39;;;;;;;3.67;2.30;;;;;;;27.22;40.75;95049.66;5063998;28;20052;-75
2021/09/04 10:03:05;;;;;;;4.03;2.00;;;;;;;27.23;40.48;95051.84;5045996;28;20043;-75
2021/09/04 10:05:30;;;;;;;2.92;2.38;;;;;;;27.23;40.81;95057.34;5030340;28;20021;-75
2021/09/04 10:07:57;;;;;;;2.85;1.80;;;;;;;27.22;40.43;95055.88;5045776;28;20105;-75
2021/09/04 10:10:30;;;;;;;3.35;2.13;;;;;;;27.28;40.34;95048.25;5047216;28;20048;-75
2021/09/04 10:12:56;;;;;;;3.75;2.40;;;;;;;27.32;40.35;95051.41;5066316;28;20043;-76
2021/09/04 10:15:22;;;;;;;3.03;2.10;;;;;;;27.33;40.18;95055.63;5068858;28;20033;-75
2021/09/04 10:17:49;;;;;;;4.45;2.63;;;;;;;27.37;40.43;95050.53;5065998;28;20028;-75
2021/09/04 10:20:15;;;;;;;3.22;2.38;;;;;;;27.38;40.67;95041.78;5034469;28;20044;-75
2021/09/04 10:22:41;;;;;;;3.47;2.10;;;;;;;27.40;40.05;95044.00;5067391;28;20650;-75
2021/09/04 10:25:14;;;;;;;3.63;2.53;;;;;;;27.42;39.85;95035.94;5068858;28;20113;-75
2021/09/04 10:27:45;;;;;;;3.28;2.10;;;;;;;27.44;39.76;95034.16;5067192;28;20024;-75
2021/09/04 10:30:24;;;;;;;3.63;2.55;;;;;;;27.45;39.89;95034.88;5068515;28;20031;-75
2021/09/04 10:33:05;;;;;;;3.55;2.50;;;;;;;27.47;39.87;95026.84;5067165;28;20859;-75
2021/09/04 10:35:49;;;;;;;3.47;2.35;;;;;;;27.46;39.92;95025.38;5068657;28;20102;-75
2021/09/04 10:38:17;;;;;;;4.10;2.58;;;;;;;27.50;39.86;95023.06;5066926;28;20040;-75
2021/09/04 10:40:43;;;;;;;3.72;2.47;;;;;;;27.51;39.70;95010.81;5068689;28;20552;-74
2021/09/04 10:43:08;;;;;;;3.53;2.20;;;;;;;27.53;39.57;95019.25;5067115;28;20024;-75
2021/09/04 10:45:34;;;;;;;2.92;2.20;;;;;;;27.53;39.85;95014.47;5033908;28;20564;-75
2021/09/04 10:48:00;;;;;;;4.82;2.50;;;;;;;27.52;39.89;95017.75;5032329;28;20031;-75
2021/09/04 10:50:27;;;;;;;3.65;1.92;;;;;;;27.54;39.72;95007.00;5050738;28;20025;-75
2021/09/04 10:52:56;;;;;;;2.85;2.30;;;;;;;27.58;39.66;95007.38;5067057;28;20461;-75
2021/09/04 10:55:27;;;;;;;3.33;2.40;;;;;;;27.59;39.63;95011.63;5067900;28;20478;-74
2021/09/04 10:58:05;;;;;;;4.00;2.20;;;;;;;27.61;39.76;95003.56;5048779;28;20044;-75
2021/09/04 11:00:52;;;;;;;3.20;2.22;;;;;;;27.62;39.61;95016.75;5050052;28;20123;-75
2021/09/04 11:03:21;;;;;;;4.47;2.67;;;;;;;27.64;39.64;95014.22;5066716;28;20028;-75
2021/09/04 11:05:47;;;;;;;3.58;2.47;;;;;;;27.65;39.61;95014.94;5067336;28;20048;-76
2021/09/04 11:08:18;;;;;;;3.85;2.35;;;;;;;27.64;39.53;95007.97;5067110;28;20051;-75
2021/09/04 11:10:44;;;;;;;5.70;2.50;;;;;;;27.67;39.71;94995.94;5065540;28;20093;-75
2021/09/04 11:13:12;;;;;;;4.05;2.75;;;;;;;27.65;37.95;94998.47;5050479;28;20032;-76
2021/09/04 11:15:43;;;;;;;6.72;2.92;;;;;;;27.63;37.03;95012.03;5049576;28;20477;-74
2021/09/04 11:18:09;;;;;;;7.35;3.30;;;;;;;27.59;35.97;95012.34;5048183;28;20035;-75
2021/09/04 11:20:44;;;;;;;5.30;3.20;;;;;;;27.52;35.65;95006.78;5045172;28;20020;-74
2021/09/04 11:23:10;;;;;;;4.80;3.40;;;;;;;27.50;35.24;95003.84;5063150;28;20586;-75
2021/09/04 11:25:39;;;;;;;5.38;3.03;;;;;;;27.48;35.18;95001.63;5048044;28;20027;-74
2021/09/04 11:28:04;;;;;;;5.72;3.28;;;;;;;27.51;34.82;94999.84;5065630;28;20031;-75
2021/09/04 11:30:30;;;;;;;6.93;3.38;;;;;;;27.52;34.61;95001.31;5049381;28;20735;-75